Time;durP1;ratioP1;P1;durP2;ratioP2;P2;SDS_P1;SDS_P2;PMS_P1;PMS_P2;Temp;Humidity;BMP_temperature;BMP_pressure;BME280_temperature;BME280_humidity;BME280_pressure;Samples;Min_cycle;Max_cycle;Signal;HPM_P1;HPM_P2
2023/11/08 00:01:34;;;;;;;12.77;7.68;;;;;;;12.88;100.00;100678.03;5068742;28;20082;-70
2023/11/08 00:04:02;;;;;;;17.25;7.97;;;;;;;12.84;100.00;100681.38;5051076;28;20068;-68
2023/11/08 00:06:27;;;;;;;16.38;7.78;;;;;;;12.60;100.00;100674.59;5068984;28;20024;-68
2023/11/08 00:08:53;;;;;;;14.70;7.63;;;;;;;12.22;100.00;100617.28;5068981;28;20033;-70
2023/11/08 00:11:23;;;;;;;17.60;8.77;;;;;;;12.67;100.00;100688.63;5068586;28;20105;-68
2023/11/08 00:13:50;;;;;;;14.38;7.43;;;;;;;12.69;100.00;100676.59;5069500;28;20497;-69
2023/11/08 00:16:17;;;;;;;12.40;7.90;;;;;;;12.27;100.00;100605.34;5068175;28;20028;-70
2023/11/08 00:18:43;;;;;;;12.45;7.82;;;;;;;12.70;100.00;100670.59;5072340;28;20032;-68
2023/11/08 00:21:08;;;;;;;12.55;7.43;;;;;;;12.09;100.00;100572.00;5072426;28;20448;-70
2023/11/08 00:23:35;;;;;;;10.63;6.80;;;;;;;12.48;100.00;100682.84;5072154;28;20031;-68
2023/11/08 00:26:01;;;;;;;12.95;7.82;;;;;;;11.39;100.00;100519.63;5064387;28;20063;-70
2023/11/08 00:28:26;;;;;;;14.13;7.32;;;;;;;12.20;100.00;100649.97;5069991;28;20067;-71
2023/11/08 00:30:52;;;;;;;15.48;8.35;;;;;;;12.23;100.00;100634.56;5072202;28;20077;-70
2023/11/08 00:33:19;;;;;;;23.42;10.48;;;;;;;11.70;100.00;100640.53;5060991;28;20108;-71
2023/11/08 00:35:45;;;;;;;27.73;11.32;;;;;;;11.73;100.00;100626.81;5068881;28;20025;-70
2023/11/08 00:38:11;;;;;;;27.90;11.88;;;;;;;11.82;100.00;100607.34;5072007;28;20036;-72
2023/11/08 00:40:36;;;;;;;31.35;11.90;;;;;;;11.82;100.00;100599.56;5072164;28;20028;-72
2023/11/08 00:43:02;;;;;;;30.42;11.57;;;;;;;11.98;100.00;100634.63;5072430;28;20534;-74
2023/11/08 00:45:27;;;;;;;26.02;10.70;;;;;;;12.01;100.00;100623.47;5072124;28;20021;-73
2023/11/08 00:47:53;;;;;;;20.65;9.68;;;;;;;12.04;100.00;100626.19;5072178;28;20032;-72
2023/11/08 00:50:19;;;;;;;22.23;10.32;;;;;;;12.10;100.00;100634.16;5071701;28;20028;-74
2023/11/08 00:52:44;;;;;;;24.40;11.05;;;;;;;12.08;100.00;100645.28;5053991;28;20382;-74
2023/11/08 00:55:10;;;;;;;26.02;10.65;;;;;;;12.00;100.00;100614.00;5072044;28;20038;-70
2023/11/08 00:57:36;;;;;;;26.20;10.52;;;;;;;12.19;100.00;100632.72;5072033;28;20638;-71
2023/11/08 01:00:07;;;;;;;19.20;9.27;;;;;;;12.20;100.00;100637.03;5067903;28;20078;-72
2023/11/08 01:02:33;;;;;;;21.30;9.82;;;;;;;12.14;100.00;100630.84;5054274;28;20020;-70
2023/11/08 01:04:59;;;;;;;22.85;9.75;;;;;;;12.00;100.00;100621.75;5053882;28;20029;-70
2023/11/08 01:07:24;;;;;;;28.45;10.32;;;;;;;11.81;100.00;100610.75;5072024;28;20044;-74
2023/11/08 01:09:50;;;;;;;24.70;9.68;;;;;;;11.69;100.00;100583.56;5071371;28;20538;-72
2023/11/08 01:12:15;;;;;;;22.75;9.85;;;;;;;11.70;100.00;100590.50;5071392;28;20040;-72
2023/11/08 01:15:01;;;;;;;24.40;10.52;;;;;;;11.95;100.00;100611.22;5028858;28;20473;-73
2023/11/08 01:17:27;;;;;;;20.95;10.07;;;;;;;12.06;100.00;100606.44;5029724;28;20041;-72
2023/11/08 01:19:53;;;;;;;24.80;10.65;;;;;;;11.76;100.00;100533.81;5028652;28;20053;-71
2023/11/08 01:22:19;;;;;;;25.35;10.48;;;;;;;12.26;100.00;100599.31;5029283;28;20045;-71
2023/11/08 01:24:44;;;;;;;33.10;12.48;;;;;;;12.20;100.00;100573.22;5028778;28;20037;-70
2023/11/08 01:27:10;;;;;;;24.33;10.73;;;;;;;12.06;100.00;100577.97;5028667;28;20040;-70
2023/11/08 01:29:36;;;;;;;30.00;11.85;;;;;;;11.70;100.00;100572.41;5027831;28;20654;-71
2023/11/08 01:32:02;;;;;;;29.52;13.57;;;;;;;11.74;100.00;100571.66;5029006;28;20048;-70
2023/11/08 01:34:28;;;;;;;38.15;12.30;;;;;;;11.44;100.00;100531.00;4995846;28;20033;-69
2023/11/08 01:36:53;;;;;;;41.63;14.55;;;;;;;11.70;100.00;100580.16;5011831;28;20480;-69
2023/11/08 01:39:19;;;;;;;30.05;13.57;;;;;;;11.75;100.00;100566.56;5028560;28;20574;-69
2023/11/08 01:41:48;;;;;;;32.92;13.50;;;;;;;11.65;100.00;100528.25;5028120;28;20053;-70
2023/11/08 01:44:22;;;;;;;53.13;14.52;;;;;;;12.03;100.00;100564.91;5028327;28;20029;-70
2023/11/08 01:46:55;;;;;;;27.35;13.75;;;;;;;11.74;100.00;100510.47;5046018;28;20090;-70
2023/11/08 01:49:22;;;;;;;46.22;14.38;;;;;;;11.83;100.00;100515.06;5071031;28;20442;-70
2023/11/08 01:51:49;;;;;;;40.78;13.25;;;;;;;11.84;100.00;100511.66;5070484;28;20085;-69
2023/11/08 01:54:18;;;;;;;38.05;13.95;;;;;;;11.86;100.00;100493.59;5070234;28;20458;-70
2023/11/08 01:56:45;;;;;;;28.55;13.70;;;;;;;11.70;100.00;100476.72;5070413;28;20029;-70
2023/11/08 01:59:12;;;;;;;28.58;13.38;;;;;;;11.76;100.00;100479.50;5070924;28;20052;-70
2023/11/08 02:01:38;;;;;;;24.58;12.73;;;;;;;12.06;100.00;100554.69;5052560;28;20025;-70
2023/11/08 02:04:03;;;;;;;25.15;12.27;;;;;;;11.84;100.00;100562.50;5052383;28;20035;-70
2023/11/08 02:06:29;;;;;;;30.05;12.95;;;;;;;11.32;100.00;100560.78;5069968;28;20021;-71
2023/11/08 02:08:55;;;;;;;35.42;13.63;;;;;;;11.23;100.00;100559.59;5070332;28;20480;-69
2023/11/08 02:11:22;;;;;;;31.00;13.38;;;;;;;11.47;100.00;100577.66;5070001;28;20422;-70
2023/11/08 02:13:49;;;;;;;30.02;12.50;;;;;;;11.59;100.00;100566.84;5070702;28;20024;-69
2023/11/08 02:16:14;;;;;;;29.80;14.40;;;;;;;11.65;100.00;100559.31;5070250;28;20027;-69
2023/11/08 02:18:40;;;;;;;29.45;14.65;;;;;;;11.73;100.00;100544.94;5070027;28;20024;-69
2023/11/08 02:21:06;;;;;;;27.50;13.25;;;;;;;11.74;100.00;100535.44;5070135;28;20422;-70
2023/11/08 02:23:31;;;;;;;25.15;13.18;;;;;;;11.49;100.00;100509.66;5070510;28;20036;-72
2023/11/08 02:25:57;;;;;;;31.35;13.63;;;;;;;11.62;100.00;100536.81;5052042;28;20054;-71
2023/11/08 02:28:23;;;;;;;35.70;14.63;;;;;;;11.56;100.00;100517.63;5034625;28;20477;-72
2023/11/08 02:30:55;;;;;;;31.15;14.45;;;;;;;11.62;100.00;100529.03;5070102;28;20028;-71
2023/11/08 02:33:22;;;;;;;36.70;15.57;;;;;;;11.29;100.00;100488.31;5070128;28;20032;-70
2023/11/08 02:35:48;;;;;;;34.47;15.43;;;;;;;11.77;100.00;100551.94;5069746;28;20036;-72
2023/11/08 02:38:14;;;;;;;41.92;15.65;;;;;;;11.83;100.00;100538.34;5070330;28;20047;-71
2023/11/08 02:40:43;;;;;;;61.30;16.38;;;;;;;11.54;100.00;100483.06;5069380;28;20478;-71
2023/11/08 02:43:12;;;;;;;42.40;17.38;;;;;;;11.47;100.00;100467.34;5069304;28;20079;-71
2023/11/08 02:45:38;;;;;;;44.80;15.60;;;;;;;12.05;100.00;100532.22;5051602;28;20032;-71
2023/11/08 02:48:05;;;;;;;38.70;15.38;;;;;;;11.98;100.00;100499.19;5069843;28;20158;-71
2023/11/08 02:50:31;;;;;;;38.92;15.68;;;;;;;11.81;100.00;100473.66;5051224;28;20036;-71
2023/11/08 02:53:00;;;;;;;49.63;15.90;;;;;;;12.14;100.00;100501.44;5069545;28;20490;-74
2023/11/08 02:55:27;;;;;;;46.90;13.73;;;;;;;12.13;100.00;100532.44;5069808;28;20024;-71
2023/11/08 02:57:53;;;;;;;44.85;15.23;;;;;;;12.11;100.00;100531.50;5069994;28;20025;-71
2023/11/08 03:00:19;;;;;;;46.63;14.43;;;;;;;11.91;100.00;100526.56;5069778;28;20505;-71
2023/11/08 03:02:45;;;;;;;45.55;12.95;;;;;;;11.93;100.00;100555.94;5069367;28;20046;-70
2023/11/08 03:05:11;;;;;;;31.17;12.68;;;;;;;11.32;100.00;100493.56;5051619;28;20085;-71
2023/11/08 03:07:37;;;;;;;30.83;12.20;;;;;;;11.36;100.00;100563.47;5070102;28;20020;-70
2023/11/08 03:10:02;;;;;;;35.88;13.82;;;;;;;11.42;100.00;100548.19;5069759;28;20021;-71
2023/11/08 03:12:28;;;;;;;29.20;13.73;;;;;;;11.43;100.00;100524.97;5051846;28;20051;-70
2023/11/08 03:14:54;;;;;;;28.73;13.85;;;;;;;11.54;100.00;100535.69;5069764;28;20035;-71
2023/11/08 03:17:20;;;;;;;29.88;13.50;;;;;;;11.76;100.00;100534.69;5069676;28;20025;-70
2023/11/08 03:19:46;;;;;;;20.65;12.50;;;;;;;11.86;100.00;100525.50;5069098;28;20502;-71
2023/11/08 03:22:16;;;;;;;26.33;11.90;;;;;;;11.94;100.00;100531.81;5069371;28;20028;-70
2023/11/08 03:24:43;;;;;;;32.13;13.05;;;;;;;11.96;100.00;100543.16;5069077;28;20036;-71
2023/11/08 03:27:09;;;;;;;36.53;13.43;;;;;;;11.78;100.00;100538.19;5066114;28;20040;-71
2023/11/08 03:29:35;;;;;;;24.30;11.75;;;;;;;11.56;100.00;100500.41;5069035;28;20755;-71
2023/11/08 03:32:02;;;;;;;28.45;11.15;;;;;;;11.75;100.00;100550.16;5069014;28;20555;-71
2023/11/08 03:34:28;;;;;;;19.13;10.95;;;;;;;11.83;100.00;100546.13;5069197;28;20059;-70
2023/11/08 03:37:14;;;;;;;33.53;12.50;;;;;;;11.92;100.00;100540.38;5069686;28;20029;-70
2023/11/08 03:39:39;;;;;;;24.77;12.45;;;;;;;11.46;100.00;100455.28;5018322;28;20133;-71
2023/11/08 03:42:05;;;;;;;32.10;12.77;;;;;;;11.79;100.00;100487.38;5022150;28;20038;-71
2023/11/08 03:44:30;;;;;;;26.08;12.98;;;;;;;12.11;100.00;100542.75;5026745;28;20040;-71
2023/11/08 03:46:56;;;;;;;26.20;11.85;;;;;;;11.69;100.00;100477.53;5026625;28;20029;-71
2023/11/08 03:49:21;;;;;;;29.92;11.02;;;;;;;12.01;100.00;100534.66;5026799;28;20072;-71
2023/11/08 03:51:47;;;;;;;18.02;10.65;;;;;;;12.07;100.00;100532.25;5025455;28;20048;-71
2023/11/08 03:54:13;;;;;;;16.60;10.63;;;;;;;12.06;100.00;100546.00;5011070;28;20034;-70
2023/11/08 03:56:38;;;;;;;19.98;10.77;;;;;;;11.94;100.00;100544.75;5010868;28;20389;-70
2023/11/08 03:59:04;;;;;;;22.05;10.30;;;;;;;11.98;100.00;100544.06;5010857;28;20030;-70
2023/11/08 04:01:30;;;;;;;18.95;9.88;;;;;;;11.56;100.00;100481.44;4993292;28;20132;-71
2023/11/08 04:03:57;;;;;;;19.70;10.85;;;;;;;11.98;100.00;100545.78;5030476;28;20136;-70
2023/11/08 04:06:22;;;;;;;18.20;10.70;;;;;;;12.06;100.00;100544.31;5016719;28;20124;-70
2023/11/08 04:08:48;;;;;;;18.00;10.13;;;;;;;12.08;100.00;100555.59;5030504;28;20468;-70
2023/11/08 04:11:13;;;;;;;22.25;10.38;;;;;;;11.94;100.00;100528.38;5030302;28;20091;-72
2023/11/08 04:13:39;;;;;;;26.30;10.95;;;;;;;12.00;100.00;100536.38;5029883;28;20036;-71
2023/11/08 04:16:05;;;;;;;20.90;9.88;;;;;;;12.05;100.00;100544.25;5033292;28;20411;-71
2023/11/08 04:18:33;;;;;;;15.77;10.85;;;;;;;12.07;100.00;100529.66;5072782;28;20451;-71
2023/11/08 04:20:59;;;;;;;20.30;11.27;;;;;;;12.04;100.00;100538.22;5071874;28;20504;-71
2023/11/08 04:23:24;;;;;;;17.02;10.02;;;;;;;11.64;100.00;100467.06;5072272;28;20025;-71
2023/11/08 04:25:50;;;;;;;14.95;10.85;;;;;;;12.02;100.00;100539.00;5071396;28;20047;-70
2023/11/08 04:28:17;;;;;;;15.13;10.88;;;;;;;12.04;100.00;100545.97;5072266;28;20379;-71
2023/11/08 04:30:45;;;;;;;12.82;10.00;;;;;;;12.00;100.00;100546.72;5072621;28;20039;-70
2023/11/08 04:33:10;;;;;;;18.80;10.52;;;;;;;12.05;100.00;100539.06;5072132;28;20387;-71
2023/11/08 04:35:36;;;;;;;15.32;10.45;;;;;;;12.00;100.00;100527.69;5071957;28;20043;-70
2023/11/08 04:38:02;;;;;;;15.45;10.30;;;;;;;11.79;100.00;100471.84;5072604;28;20029;-70
2023/11/08 04:40:28;;;;;;;15.60;10.38;;;;;;;12.26;100.00;100528.53;5071444;28;20485;-70
2023/11/08 04:42:54;;;;;;;19.33;10.63;;;;;;;12.10;100.00;100501.28;5064266;28;20453;-70
2023/11/08 04:45:20;;;;;;;17.00;10.18;;;;;;;11.91;100.00;100450.66;5067679;28;20137;-71
2023/11/08 04:47:45;;;;;;;15.43;10.85;;;;;;;12.39;100.00;100534.97;5036466;28;20565;-70
2023/11/08 04:50:11;;;;;;;19.85;11.00;;;;;;;12.05;100.00;100497.66;5071653;28;20028;-71
2023/11/08 04:52:37;;;;;;;22.73;10.80;;;;;;;12.31;100.00;100545.06;5072147;28;20020;-71
2023/11/08 04:55:02;;;;;;;22.70;10.63;;;;;;;12.04;100.00;100490.78;5071662;28;20017;-70
2023/11/08 04:57:29;;;;;;;24.10;11.32;;;;;;;12.36;100.00;100532.28;5068301;28;20123;-70
2023/11/08 04:59:54;;;;;;;27.42;12.98;;;;;;;12.42;100.00;100530.78;5071755;28;20028;-70
2023/11/08 05:02:20;;;;;;;39.72;19.13;;;;;;;11.90;100.00;100441.13;5071988;28;20401;-69
2023/11/08 05:04:47;;;;;;;42.00;20.67;;;;;;;12.12;100.00;100523.81;5070091;28;20036;-69
2023/11/08 05:07:13;;;;;;;43.55;20.48;;;;;;;11.50;100.00;100453.66;5053746;28;20042;-70
2023/11/08 05:09:40;;;;;;;40.38;21.73;;;;;;;11.31;100.00;100462.50;5071177;28;20399;-70
2023/11/08 05:12:06;;;;;;;37.38;20.17;;;;;;;11.62;100.00;100536.81;5071553;28;20611;-70
2023/11/08 05:14:32;;;;;;;41.22;19.42;;;;;;;11.56;100.00;100541.75;5071636;28;20032;-70
2023/11/08 05:16:58;;;;;;;49.38;21.38;;;;;;;11.66;100.00;100553.31;5071331;28;20048;-70
2023/11/08 05:19:23;;;;;;;41.13;20.02;;;;;;;11.59;100.00;100531.53;5071406;28;20048;-69
2023/11/08 05:21:49;;;;;;;46.38;20.77;;;;;;;11.76;100.00;100565.75;5071825;28;20039;-70
2023/11/08 05:24:15;;;;;;;34.47;18.65;;;;;;;11.64;100.00;100534.28;5070841;28;20043;-70
2023/11/08 05:26:42;;;;;;;41.03;18.38;;;;;;;11.87;100.00;100557.44;5071067;28;20021;-71
2023/11/08 05:29:08;;;;;;;40.30;19.20;;;;;;;11.91;100.00;100543.78;5071126;28;20034;-71
2023/11/08 05:31:34;;;;;;;34.13;18.00;;;;;;;11.78;100.00;100509.75;5071635;28;20385;-70
2023/11/08 05:34:03;;;;;;;29.80;16.67;;;;;;;12.17;100.00;100554.13;5071585;28;20032;-71
2023/11/08 05:36:29;;;;;;;27.67;15.57;;;;;;;11.76;100.00;100484.66;5071234;28;20494;-69
2023/11/08 05:38:58;;;;;;;29.33;15.00;;;;;;;12.12;100.00;100529.00;5071212;28;20035;-70
2023/11/08 05:41:24;;;;;;;22.45;14.35;;;;;;;11.91;100.00;100528.25;5071124;28;20043;-71
2023/11/08 05:43:51;;;;;;;28.38;15.13;;;;;;;11.95;100.00;100532.69;5070512;28;20028;-70
2023/11/08 05:46:17;;;;;;;29.80;16.02;;;;;;;11.98;100.00;100549.22;5061211;28;20052;-70
2023/11/08 05:48:43;;;;;;;30.35;14.93;;;;;;;12.06;100.00;100548.59;5067510;28;20515;-70
2023/11/08 05:51:09;;;;;;;22.73;13.02;;;;;;;11.78;100.00;100522.69;5035273;28;20040;-70
2023/11/08 05:53:37;;;;;;;22.67;13.48;;;;;;;11.75;100.00;100521.69;5070369;28;20023;-71
2023/11/08 05:56:03;;;;;;;26.75;14.35;;;;;;;11.56;100.00;100509.88;5070975;28;20017;-69
2023/11/08 05:58:30;;;;;;;23.52;13.95;;;;;;;11.33;100.00;100495.34;5070147;28;20032;-70
2023/11/08 06:00:57;;;;;;;28.48;16.23;;;;;;;10.93;100.00;100438.81;5070753;28;20487;-71
2023/11/08 06:03:23;;;;;;;35.08;15.25;;;;;;;11.19;100.00;100511.19;5070348;28;20028;-70
2023/11/08 06:05:48;;;;;;;37.55;18.15;;;;;;;11.26;100.00;100511.44;5070952;28;20028;-70
2023/11/08 06:08:14;;;;;;;24.52;14.85;;;;;;;10.84;100.00;100445.44;5069903;28;20024;-71
2023/11/08 06:10:39;;;;;;;25.30;14.77;;;;;;;10.76;100.00;100426.19;5070694;28;20156;-71
2023/11/08 06:13:05;;;;;;;35.45;17.10;;;;;;;11.23;100.00;100507.91;5070273;28;20475;-70
2023/11/08 06:15:30;;;;;;;42.53;16.92;;;;;;;11.29;100.00;100510.69;5069633;28;20028;-71
2023/11/08 06:17:56;;;;;;;42.50;17.95;;;;;;;11.59;100.00;100530.66;5070065;28;20508;-71
2023/11/08 06:20:22;;;;;;;31.90;15.88;;;;;;;11.73;100.00;100533.72;5070437;28;20044;-70
2023/11/08 06:22:48;;;;;;;27.95;13.13;;;;;;;11.74;100.00;100522.53;5069785;28;20063;-71
2023/11/08 06:25:14;;;;;;;25.58;14.20;;;;;;;11.52;100.00;100466.66;5070155;28;20024;-70
2023/11/08 06:27:40;;;;;;;27.20;13.93;;;;;;;12.04;100.00;100530.44;5070098;28;20379;-71
2023/11/08 06:30:07;;;;;;;25.05;12.10;;;;;;;12.04;100.00;100535.63;5070329;28;20148;-71
2023/11/08 06:32:33;;;;;;;27.38;12.88;;;;;;;11.52;100.00;100456.31;5070236;28;20062;-71
2023/11/08 06:35:00;;;;;;;23.75;13.75;;;;;;;11.79;100.00;100500.28;5070060;28;20063;-71
2023/11/08 06:37:29;;;;;;;22.02;12.98;;;;;;;11.84;100.00;100490.06;5051958;28;20513;-72
2023/11/08 06:39:55;;;;;;;22.25;11.60;;;;;;;12.23;100.00;100539.66;5070295;28;20029;-70
2023/11/08 06:42:21;;;;;;;34.78;13.45;;;;;;;12.27;100.00;100549.31;5064605;28;20040;-70
2023/11/08 06:44:47;;;;;;;22.13;11.18;;;;;;;12.06;100.00;100546.91;5058368;28;20024;-70
2023/11/08 06:47:13;;;;;;;23.80;11.38;;;;;;;11.99;100.00;100557.88;5070102;28;20189;-70
2023/11/08 06:49:38;;;;;;;21.70;11.85;;;;;;;12.06;100.00;100548.59;5069911;28;20024;-70
2023/11/08 06:52:04;;;;;;;23.67;11.57;;;;;;;11.84;100.00;100509.09;5051534;28;20024;-70
2023/11/08 06:54:32;;;;;;;22.33;11.20;;;;;;;12.04;100.00;100543.38;5069671;28;20033;-70
2023/11/08 06:56:57;;;;;;;21.33;11.52;;;;;;;11.60;100.00;100453.16;5069224;28;20490;-70
2023/11/08 06:59:23;;;;;;;17.65;10.57;;;;;;;12.18;100.00;100525.69;5069920;28;20021;-71
2023/11/08 07:01:48;;;;;;;16.15;10.20;;;;;;;12.21;100.00;100510.28;5069288;28;20593;-70
2023/11/08 07:04:14;;;;;;;18.05;10.73;;;;;;;11.92;100.00;100458.44;5069241;28;20036;-70
2023/11/08 07:06:40;;;;;;;18.55;10.60;;;;;;;12.38;100.00;100525.44;5069215;28;20066;-73
2023/11/08 07:09:07;;;;;;;17.40;10.50;;;;;;;12.46;100.00;100540.38;5069845;28;20028;-74
2023/11/08 07:11:32;;;;;;;15.13;9.77;;;;;;;12.53;100.00;100543.16;5069655;28;20456;-70
2023/11/08 07:13:58;;;;;;;17.30;11.75;;;;;;;12.58;100.00;100544.16;5069390;28;20036;-70
2023/11/08 07:16:25;;;;;;;18.20;11.38;;;;;;;12.32;100.00;100502.81;5069561;28;20039;-70
2023/11/08 07:18:50;;;;;;;18.00;10.90;;;;;;;12.66;100.00;100541.81;5038274;28;20416;-71
2023/11/08 07:21:18;;;;;;;14.73;10.20;;;;;;;12.64;100.00;100518.44;5069283;28;20035;-71
2023/11/08 07:23:44;;;;;;;16.08;9.63;;;;;;;12.79;100.00;100537.00;5064363;28;20039;-70
2023/11/08 07:26:09;;;;;;;16.10;10.35;;;;;;;12.89;100.00;100545.06;5069662;28;20025;-71
2023/11/08 07:28:35;;;;;;;15.93;10.32;;;;;;;13.02;100.00;100542.00;5072560;28;20028;-70
2023/11/08 07:31:00;;;;;;;15.88;10.02;;;;;;;12.72;100.00;100474.63;5071452;28;20037;-70
2023/11/08 07:33:26;;;;;;;18.40;11.23;;;;;;;13.12;100.00;100535.34;5072462;28;20039;-69
2023/11/08 07:35:51;;;;;;;20.17;11.98;;;;;;;13.09;100.00;100549.09;5073029;28;20020;-70
2023/11/08 07:38:17;;;;;;;23.70;13.52;;;;;;;13.07;100.00;100529.16;5073567;28;20060;-73
2023/11/08 07:40:42;;;;;;;21.05;12.70;;;;;;;13.08;100.00;100520.53;5084762;28;20024;-71
2023/11/08 07:43:08;;;;;;;20.75;13.10;;;;;;;13.25;100.00;100534.84;5075423;28;20028;-73
2023/11/08 07:45:34;;;;;;;17.35;11.50;;;;;;;12.93;100.00;100462.28;5100053;23;20455;-72
2023/11/08 07:48:02;;;;;;;18.58;12.27;;;;;;;13.29;100.00;100528.03;5061000;28;20025;-72
2023/11/08 07:50:28;;;;;;;19.52;13.10;;;;;;;13.21;100.00;100525.22;5069237;28;20037;-72
2023/11/08 07:52:54;;;;;;;22.45;13.10;;;;;;;13.26;100.00;100518.44;5073464;28;20112;-72
2023/11/08 07:55:19;;;;;;;21.23;12.95;;;;;;;13.38;100.00;100525.72;5073236;28;20103;-72
2023/11/08 07:57:45;;;;;;;21.33;12.68;;;;;;;13.07;100.00;100447.09;5072932;28;20025;-72
2023/11/08 08:00:14;;;;;;;19.20;10.90;;;;;;;13.25;100.00;100495.09;5072854;28;20032;-72
2023/11/08 08:02:41;;;;;;;19.20;11.27;;;;;;;13.33;100.00;100503.91;5073091;28;20067;-72
2023/11/08 08:05:09;;;;;;;20.63;11.82;;;;;;;13.42;100.00;100519.78;5073100;28;20037;-72
2023/11/08 08:07:35;;;;;;;21.02;12.77;;;;;;;13.34;100.00;100497.03;5069367;28;20111;-72
2023/11/08 08:10:00;;;;;;;21.55;12.10;;;;;;;13.55;100.00;100501.94;5073152;28;20035;-72
2023/11/08 08:12:26;;;;;;;16.05;10.77;;;;;;;13.38;100.00;100473.88;5072586;28;20393;-72
2023/11/08 08:14:52;;;;;;;22.05;12.32;;;;;;;13.15;100.00;100439.53;5073188;28;20493;-72
2023/11/08 08:17:19;;;;;;;17.27;10.70;;;;;;;13.06;100.00;100422.03;5072694;28;20480;-72
2023/11/08 08:19:46;;;;;;;19.95;11.45;;;;;;;13.47;100.00;100493.06;5053362;28;20687;-72
2023/11/08 08:22:14;;;;;;;16.70;10.52;;;;;;;13.45;100.00;100484.41;5072455;28;20487;-72
2023/11/08 08:24:40;;;;;;;19.35;11.60;;;;;;;13.46;100.00;100486.13;5072018;28;20032;-72
2023/11/08 08:27:05;;;;;;;20.63;13.30;;;;;;;13.40;100.00;100481.69;5071861;28;20820;-71
2023/11/08 08:29:31;;;;;;;18.52;12.40;;;;;;;13.50;100.00;100482.78;5072871;28;20021;-72
2023/11/08 08:31:57;;;;;;;20.95;13.10;;;;;;;13.49;100.00;100478.44;5072709;28;20024;-72
2023/11/08 08:34:23;;;;;;;23.95;14.82;;;;;;;13.50;100.00;100475.00;5072713;28;20047;-72
2023/11/08 08:36:48;;;;;;;15.45;11.50;;;;;;;13.19;100.00;100420.59;5071808;28;20028;-72
2023/11/08 08:39:16;;;;;;;17.83;11.63;;;;;;;13.66;100.00;100492.69;5078090;28;20718;-72
2023/11/08 08:41:45;;;;;;;14.35;9.70;;;;;;;13.71;100.00;100477.25;5076542;28;20036;-72
2023/11/08 08:44:12;;;;;;;18.42;8.85;;;;;;;13.71;100.00;100470.34;5018589;28;20041;-72
2023/11/08 08:46:37;;;;;;;14.85;8.98;;;;;;;13.64;100.00;100458.06;5063021;28;20045;-72
2023/11/08 08:49:03;;;;;;;14.07;9.32;;;;;;;13.78;100.00;100468.75;5064883;28;20033;-72
2023/11/08 08:51:28;;;;;;;13.90;8.05;;;;;;;13.75;100.00;100466.09;5065246;28;20162;-72
2023/11/08 08:53:54;;;;;;;15.70;9.32;;;;;;;13.59;100.00;100455.38;5070808;28;20021;-72
2023/11/08 08:56:42;;;;;;;13.65;9.30;;;;;;;13.70;100.00;100478.09;5070819;28;20041;-72
2023/11/08 08:59:09;;;;;;;16.42;9.75;;;;;;;13.60;100.00;100456.22;5008821;28;20557;-73
2023/11/08 09:01:35;;;;;;;13.65;9.10;;;;;;;13.57;100.00;100443.16;4991661;28;20038;-74
2023/11/08 09:04:01;;;;;;;14.68;9.63;;;;;;;13.88;100.00;100490.63;5004843;28;20081;-74
2023/11/08 09:06:28;;;;;;;16.05;11.45;;;;;;;13.55;100.00;100421.53;5008729;28;20454;-72
2023/11/08 09:08:54;;;;;;;14.40;10.50;;;;;;;13.90;100.00;100463.84;5008186;28;20038;-72
2023/11/08 09:11:20;;;;;;;16.38;9.43;;;;;;;13.59;100.00;100394.81;4992520;28;20044;-70
2023/11/08 09:13:46;;;;;;;22.70;11.60;;;;;;;14.12;100.00;100469.56;5008216;28;20125;-72
2023/11/08 09:16:12;;;;;;;19.25;11.20;;;;;;;13.98;100.00;100451.06;5006558;28;20036;-71
2023/11/08 09:18:39;;;;;;;29.40;12.98;;;;;;;14.10;100.00;100453.06;5008695;28;20100;-70
2023/11/08 09:21:04;;;;;;;17.63;10.93;;;;;;;14.07;100.00;100425.31;5007427;28;20058;-74
2023/11/08 09:23:33;;;;;;;96.00;17.20;;;;;;;13.90;100.00;100372.16;4974330;28;20088;-71
2023/11/08 09:25:59;;;;;;;29.25;13.27;;;;;;;14.31;100.00;100418.88;5008412;28;20500;-71
2023/11/08 09:28:25;;;;;;;21.02;11.40;;;;;;;14.27;100.00;100406.69;5003329;28;20034;-73
2023/11/08 09:30:52;;;;;;;24.38;13.27;;;;;;;14.46;100.00;100431.31;5016712;28;20087;-72
2023/11/08 09:33:18;;;;;;;21.90;10.75;;;;;;;14.18;100.00;100376.22;5056203;28;20107;-73
2023/11/08 09:35:43;;;;;;;17.80;10.30;;;;;;;14.56;100.00;100434.97;5070681;28;20028;-72
2023/11/08 09:38:12;;;;;;;15.75;9.63;;;;;;;14.38;100.00;100425.06;5070272;28;20012;-70
2023/11/08 09:40:37;;;;;;;15.52;9.13;;;;;;;14.33;100.00;100411.13;5070291;28;20108;-73
2023/11/08 09:43:05;;;;;;;33.33;11.50;;;;;;;14.49;100.00;100417.50;5069816;28;20108;-71
2023/11/08 09:45:31;;;;;;;26.02;12.68;;;;;;;14.55;100.00;100426.31;5021696;28;1357782;-76
2023/11/08 09:47:57;;;;;;;15.65;10.35;;;;;;;14.18;100.00;100336.38;5070280;28;20036;-72
2023/11/08 09:50:24;;;;;;;16.83;10.27;;;;;;;14.70;100.00;100411.88;5068985;28;20402;-70
2023/11/08 09:52:51;;;;;;;15.57;9.90;;;;;;;14.72;100.00;100411.06;5071109;28;20496;-70
2023/11/08 09:55:17;;;;;;;17.10;10.30;;;;;;;14.71;100.00;100398.91;5070834;28;20515;-71
2023/11/08 09:57:49;;;;;;;13.88;9.82;;;;;;;14.79;100.00;100400.78;5070934;28;20052;-72
2023/11/08 10:00:19;;;;;;;15.40;10.23;;;;;;;14.86;100.00;100424.31;5070765;28;20039;-72
2023/11/08 10:02:45;;;;;;;;;;;;;;;14.92;100.00;100413.16;5069122;28;20556;-71
2023/11/08 10:05:11;;;;;;;17.27;9.13;;;;;;;14.92;100.00;100400.19;5070782;28;19912;-72
2023/11/08 10:07:39;;;;;;;18.95;9.90;;;;;;;14.69;100.00;100342.56;5070489;28;20501;-71
2023/11/08 10:10:06;;;;;;;33.10;10.23;;;;;;;14.93;100.00;100386.34;5070526;28;20021;-73
2023/11/08 10:12:32;;;;;;;17.27;9.55;;;;;;;14.88;100.00;100404.44;5070118;28;20489;-73
2023/11/08 10:15:03;;;;;;;16.73;8.57;;;;;;;14.65;100.00;100377.16;5051263;28;20028;-73
2023/11/08 10:17:40;;;;;;;23.20;9.48;;;;;;;14.84;100.00;100391.34;5067633;28;20561;-71
2023/11/08 10:20:11;;;;;;;15.35;9.32;;;;;;;15.03;100.00;100390.84;5057154;28;20072;-72
2023/11/08 10:22:37;;;;;;;12.52;7.95;;;;;;;15.13;100.00;100372.81;5068127;28;20410;-75
2023/11/08 10:25:04;;;;;;;14.77;8.40;;;;;;;15.28;100.00;100395.59;5070164;28;20060;-73
2023/11/08 10:27:32;;;;;;;13.38;7.85;;;;;;;15.22;100.00;100372.94;5068823;28;20029;-72
2023/11/08 10:30:16;;;;;;;18.10;11.60;;;;;;;15.28;100.00;100375.66;5069739;28;20449;-71
2023/11/08 10:32:45;;;;;;;19.95;11.60;;;;;;;15.39;100.00;100382.75;5052154;28;20025;-71
2023/11/08 10:35:16;;;;;;;12.23;9.75;;;;;;;15.17;100.00;100315.66;5070241;28;20086;-73
2023/11/08 10:37:42;;;;;;;12.80;7.03;;;;;;;15.58;100.00;100363.97;5069911;28;20045;-73
2023/11/08 10:40:09;;;;;;;18.08;7.07;;;;;;;15.69;100.00;100372.81;5069802;28;20112;-75
2023/11/08 10:42:34;;;;;;;17.20;8.00;;;;;;;15.73;100.00;100378.06;5069933;28;20035;-71
2023/11/08 10:45:09;;;;;;;16.65;10.38;;;;;;;15.66;100.00;100377.97;5070106;28;20048;-73
2023/11/08 10:47:39;;;;;;;23.95;8.32;;;;;;;15.63;100.00;100353.63;5061569;28;20031;-74
2023/11/08 10:50:06;;;;;;;17.52;7.07;;;;;;;15.68;100.00;100367.59;5067034;28;20063;-73
2023/11/08 10:52:33;;;;;;;9.02;5.45;;;;;;;15.69;100.00;100361.53;5070029;28;20085;-73
2023/11/08 10:54:58;;;;;;;11.63;5.53;;;;;;;15.55;100.00;100329.22;5069217;28;20039;-74
2023/11/08 10:57:28;;;;;;;11.45;4.75;;;;;;;15.37;100.00;100322.91;5061065;28;20028;-71
2023/11/08 10:59:59;;;;;;;8.23;4.93;;;;;;;15.55;100.00;100342.22;5026890;28;20033;-73
2023/11/08 11:02:48;;;;;;;8.85;4.95;;;;;;;15.44;100.00;100314.34;5069615;28;20017;-74